sensor_id;sensor_type;location;lat;lon;timestamp;P1;durP1;ratioP1;P2;durP2;ratioP2
65172;SDS011;51758;52.218;5.172;2023-04-02T00:00:11;21.97;;;12.07;;
65172;SDS011;51758;52.218;5.172;2023-04-02T00:02:46;16.38;;;11.88;;
65172;SDS011;51758;52.218;5.172;2023-04-02T00:05:39;15.68;;;11.13;;
65172;SDS011;51758;52.218;5.172;2023-04-02T00:08:24;19.13;;;10.80;;
65172;SDS011;51758;52.218;5.172;2023-04-02T00:10:55;18.27;;;11.97;;
65172;SDS011;51758;52.218;5.172;2023-04-02T00:13:29;21.77;;;12.47;;
65172;SDS011;51758;52.218;5.172;2023-04-02T00:16:00;19.30;;;11.87;;
65172;SDS011;51758;52.218;5.172;2023-04-02T00:18:30;16.20;;;11.10;;
65172;SDS011;51758;52.218;5.172;2023-04-02T00:21:04;18.43;;;11.37;;
65172;SDS011;51758;52.218;5.172;2023-04-02T00:23:37;17.57;;;11.10;;
65172;SDS011;51758;52.218;5.172;2023-04-02T00:26:18;17.03;;;10.93;;
65172;SDS011;51758;52.218;5.172;2023-04-02T00:28:49;17.10;;;11.23;;
65172;SDS011;51758;52.218;5.172;2023-04-02T00:31:18;16.70;;;11.60;;
65172;SDS011;51758;52.218;5.172;2023-04-02T00:36:15;14.63;;;10.90;;
65172;SDS011;51758;52.218;5.172;2023-04-02T00:38:45;16.10;;;9.93;;
65172;SDS011;51758;52.218;5.172;2023-04-02T00:41:15;16.05;;;11.07;;
65172;SDS011;51758;52.218;5.172;2023-04-02T00:43:47;14.43;;;10.47;;
65172;SDS011;51758;52.218;5.172;2023-04-02T00:46:19;15.70;;;11.57;;
65172;SDS011;51758;52.218;5.172;2023-04-02T00:48:51;15.87;;;10.67;;
65172;SDS011;51758;52.218;5.172;2023-04-02T00:51:25;17.23;;;10.50;;
65172;SDS011;51758;52.218;5.172;2023-04-02T00:53:59;17.63;;;11.33;;
65172;SDS011;51758;52.218;5.172;2023-04-02T00:56:30;18.17;;;11.80;;
65172;SDS011;51758;52.218;5.172;2023-04-02T00:59:04;16.70;;;10.87;;
65172;SDS011;51758;52.218;5.172;2023-04-02T01:01:42;15.83;;;10.50;;
65172;SDS011;51758;52.218;5.172;2023-04-02T01:06:52;14.10;;;9.87;;
65172;SDS011;51758;52.218;5.172;2023-04-02T01:09:23;12.93;;;9.60;;
65172;SDS011;51758;52.218;5.172;2023-04-02T01:12:09;14.17;;;9.23;;
65172;SDS011;51758;52.218;5.172;2023-04-02T01:14:53;14.23;;;9.57;;
65172;SDS011;51758;52.218;5.172;2023-04-02T01:17:33;13.83;;;9.97;;
65172;SDS011;51758;52.218;5.172;2023-04-02T01:20:22;14.50;;;9.60;;
65172;SDS011;51758;52.218;5.172;2023-04-02T01:23:29;19.23;;;10.30;;
65172;SDS011;51758;52.218;5.172;2023-04-02T01:26:07;13.87;;;8.97;;
65172;SDS011;51758;52.218;5.172;2023-04-02T01:28:47;14.03;;;9.37;;
65172;SDS011;51758;52.218;5.172;2023-04-02T01:31:23;12.77;;;9.43;;
65172;SDS011;51758;52.218;5.172;2023-04-02T01:33:53;12.83;;;9.33;;
65172;SDS011;51758;52.218;5.172;2023-04-02T01:36:22;13.98;;;8.93;;
65172;SDS011;51758;52.218;5.172;2023-04-02T01:38:57;15.50;;;8.77;;
65172;SDS011;51758;52.218;5.172;2023-04-02T01:41:31;12.30;;;9.00;;
65172;SDS011;51758;52.218;5.172;2023-04-02T01:44:06;12.20;;;9.40;;
65172;SDS011;51758;52.218;5.172;2023-04-02T01:46:39;14.17;;;8.80;;
65172;SDS011;51758;52.218;5.172;2023-04-02T01:49:10;13.23;;;8.27;;
65172;SDS011;51758;52.218;5.172;2023-04-02T01:51:43;13.57;;;9.37;;
65172;SDS011;51758;52.218;5.172;2023-04-02T01:54:12;13.43;;;8.40;;
65172;SDS011;51758;52.218;5.172;2023-04-02T01:56:43;14.13;;;7.97;;
65172;SDS011;51758;52.218;5.172;2023-04-02T01:59:14;14.40;;;8.60;;
65172;SDS011;51758;52.218;5.172;2023-04-02T02:01:46;10.30;;;8.00;;
65172;SDS011;51758;52.218;5.172;2023-04-02T02:04:18;13.47;;;9.10;;
65172;SDS011;51758;52.218;5.172;2023-04-02T02:06:46;11.02;;;8.32;;
65172;SDS011;51758;52.218;5.172;2023-04-02T02:09:16;13.98;;;9.15;;
65172;SDS011;51758;52.218;5.172;2023-04-02T02:11:49;17.80;;;9.27;;
65172;SDS011;51758;52.218;5.172;2023-04-02T02:14:19;13.50;;;9.35;;
65172;SDS011;51758;52.218;5.172;2023-04-02T02:16:48;16.53;;;9.73;;
65172;SDS011;51758;52.218;5.172;2023-04-02T02:19:20;12.97;;;9.50;;
65172;SDS011;51758;52.218;5.172;2023-04-02T02:21:53;12.10;;;7.90;;
65172;SDS011;51758;52.218;5.172;2023-04-02T02:24:24;12.27;;;8.47;;
65172;SDS011;51758;52.218;5.172;2023-04-02T02:27:00;12.57;;;8.37;;
65172;SDS011;51758;52.218;5.172;2023-04-02T02:29:34;12.07;;;7.77;;
65172;SDS011;51758;52.218;5.172;2023-04-02T02:32:04;11.70;;;8.00;;
65172;SDS011;51758;52.218;5.172;2023-04-02T02:34:36;15.77;;;7.80;;
65172;SDS011;51758;52.218;5.172;2023-04-02T02:37:09;10.83;;;7.67;;
65172;SDS011;51758;52.218;5.172;2023-04-02T02:39:41;12.47;;;7.30;;
65172;SDS011;51758;52.218;5.172;2023-04-02T02:42:12;15.03;;;7.10;;
65172;SDS011;51758;52.218;5.172;2023-04-02T02:44:46;10.43;;;7.83;;
65172;SDS011;51758;52.218;5.172;2023-04-02T02:47:17;11.17;;;7.40;;
65172;SDS011;51758;52.218;5.172;2023-04-02T02:49:49;11.87;;;7.20;;
65172;SDS011;51758;52.218;5.172;2023-04-02T02:52:20;9.63;;;7.50;;
65172;SDS011;51758;52.218;5.172;2023-04-02T02:54:53;10.03;;;8.60;;
65172;SDS011;51758;52.218;5.172;2023-04-02T02:57:25;10.03;;;7.50;;
65172;SDS011;51758;52.218;5.172;2023-04-02T02:59:57;9.93;;;7.77;;
65172;SDS011;51758;52.218;5.172;2023-04-02T03:02:30;11.40;;;7.37;;
65172;SDS011;51758;52.218;5.172;2023-04-02T03:05:02;10.93;;;7.37;;
65172;SDS011;51758;52.218;5.172;2023-04-02T03:07:32;13.37;;;8.17;;
65172;SDS011;51758;52.218;5.172;2023-04-02T03:10:03;12.67;;;7.90;;
65172;SDS011;51758;52.218;5.172;2023-04-02T03:12:41;8.47;;;7.30;;
65172;SDS011;51758;52.218;5.172;2023-04-02T03:15:17;10.10;;;7.40;;
65172;SDS011;51758;52.218;5.172;2023-04-02T03:17:49;11.33;;;7.70;;
65172;SDS011;51758;52.218;5.172;2023-04-02T03:20:23;9.67;;;7.27;;
65172;SDS011;51758;52.218;5.172;2023-04-02T03:22:57;9.30;;;7.77;;
65172;SDS011;51758;52.218;5.172;2023-04-02T03:25:32;10.83;;;7.83;;
65172;SDS011;51758;52.218;5.172;2023-04-02T03:28:06;10.60;;;8.30;;
65172;SDS011;51758;52.218;5.172;2023-04-02T03:30:42;13.30;;;7.87;;
65172;SDS011;51758;52.218;5.172;2023-04-02T03:33:16;12.07;;;7.63;;
65172;SDS011;51758;52.218;5.172;2023-04-02T03:35:48;9.70;;;7.63;;
65172;SDS011;51758;52.218;5.172;2023-04-02T03:38:24;9.07;;;7.60;;
65172;SDS011;51758;52.218;5.172;2023-04-02T03:41:00;8.70;;;6.67;;
65172;SDS011;51758;52.218;5.172;2023-04-02T03:43:32;10.77;;;7.40;;
65172;SDS011;51758;52.218;5.172;2023-04-02T03:46:08;9.73;;;7.47;;
65172;SDS011;51758;52.218;5.172;2023-04-02T03:48:44;12.20;;;8.00;;
65172;SDS011;51758;52.218;5.172;2023-04-02T03:51:17;10.90;;;7.37;;
65172;SDS011;51758;52.218;5.172;2023-04-02T03:53:50;10.67;;;6.97;;
65172;SDS011;51758;52.218;5.172;2023-04-02T03:56:20;10.20;;;7.63;;
65172;SDS011;51758;52.218;5.172;2023-04-02T03:58:54;7.53;;;6.73;;
65172;SDS011;51758;52.218;5.172;2023-04-02T04:01:33;8.57;;;6.90;;
65172;SDS011;51758;52.218;5.172;2023-04-02T04:04:09;11.50;;;7.27;;
65172;SDS011;51758;52.218;5.172;2023-04-02T04:06:42;10.57;;;6.60;;
65172;SDS011;51758;52.218;5.172;2023-04-02T04:09:14;9.40;;;6.73;;
65172;SDS011;51758;52.218;5.172;2023-04-02T04:11:47;9.93;;;7.03;;
65172;SDS011;51758;52.218;5.172;2023-04-02T04:14:18;9.97;;;6.77;;
65172;SDS011;51758;52.218;5.172;2023-04-02T04:16:50;10.07;;;7.00;;
65172;SDS011;51758;52.218;5.172;2023-04-02T04:19:23;11.03;;;6.90;;
65172;SDS011;51758;52.218;5.172;2023-04-02T04:22:07;11.33;;;6.60;;
65172;SDS011;51758;52.218;5.172;2023-04-02T04:24:36;9.55;;;6.55;;
65172;SDS011;51758;52.218;5.172;2023-04-02T04:27:05;8.13;;;6.60;;
65172;SDS011;51758;52.218;5.172;2023-04-02T04:29:39;10.33;;;6.67;;
65172;SDS011;51758;52.218;5.172;2023-04-02T04:32:20;8.87;;;6.50;;
65172;SDS011;51758;52.218;5.172;2023-04-02T04:34:53;8.13;;;6.83;;
65172;SDS011;51758;52.218;5.172;2023-04-02T04:37:27;7.60;;;5.90;;
65172;SDS011;51758;52.218;5.172;2023-04-02T04:40:02;7.63;;;6.07;;
65172;SDS011;51758;52.218;5.172;2023-04-02T04:42:37;8.77;;;7.03;;
65172;SDS011;51758;52.218;5.172;2023-04-02T04:45:11;10.23;;;6.77;;
65172;SDS011;51758;52.218;5.172;2023-04-02T04:47:52;11.83;;;6.40;;
65172;SDS011;51758;52.218;5.172;2023-04-02T04:50:26;9.10;;;6.57;;
65172;SDS011;51758;52.218;5.172;2023-04-02T04:53:03;9.10;;;6.30;;
65172;SDS011;51758;52.218;5.172;2023-04-02T04:55:36;13.10;;;6.43;;
65172;SDS011;51758;52.218;5.172;2023-04-02T04:58:07;8.13;;;6.10;;
65172;SDS011;51758;52.218;5.172;2023-04-02T05:00:46;8.30;;;5.97;;
65172;SDS011;51758;52.218;5.172;2023-04-02T05:03:32;12.73;;;5.67;;
65172;SDS011;51758;52.218;5.172;2023-04-02T05:06:07;10.03;;;5.60;;
65172;SDS011;51758;52.218;5.172;2023-04-02T05:08:43;9.07;;;4.67;;
65172;SDS011;51758;52.218;5.172;2023-04-02T05:11:15;9.67;;;5.07;;
65172;SDS011;51758;52.218;5.172;2023-04-02T05:13:50;6.87;;;4.30;;
65172;SDS011;51758;52.218;5.172;2023-04-02T05:16:23;7.03;;;4.57;;
65172;SDS011;51758;52.218;5.172;2023-04-02T05:18:59;7.10;;;4.40;;
65172;SDS011;51758;52.218;5.172;2023-04-02T05:21:33;9.57;;;4.40;;
65172;SDS011;51758;52.218;5.172;2023-04-02T05:24:16;6.67;;;4.40;;
65172;SDS011;51758;52.218;5.172;2023-04-02T05:27:04;10.43;;;4.23;;
65172;SDS011;51758;52.218;5.172;2023-04-02T05:29:42;6.28;;;4.15;;
65172;SDS011;51758;52.218;5.172;2023-04-02T05:32:16;6.20;;;4.27;;
65172;SDS011;51758;52.218;5.172;2023-04-02T05:34:51;7.27;;;3.97;;
65172;SDS011;51758;52.218;5.172;2023-04-02T05:37:23;7.77;;;4.00;;
65172;SDS011;51758;52.218;5.172;2023-04-02T05:39:55;10.97;;;4.17;;
65172;SDS011;51758;52.218;5.172;2023-04-02T05:42:27;7.67;;;4.10;;
65172;SDS011;51758;52.218;5.172;2023-04-02T05:45:02;7.20;;;4.17;;
65172;SDS011;51758;52.218;5.172;2023-04-02T05:47:34;7.13;;;3.63;;
65172;SDS011;51758;52.218;5.172;2023-04-02T05:50:15;10.33;;;4.17;;
65172;SDS011;51758;52.218;5.172;2023-04-02T05:52:48;7.70;;;4.07;;
65172;SDS011;51758;52.218;5.172;2023-04-02T05:55:26;8.43;;;3.97;;
65172;SDS011;51758;52.218;5.172;2023-04-02T05:58:01;7.70;;;4.37;;
65172;SDS011;51758;52.218;5.172;2023-04-02T06:00:57;8.23;;;4.00;;
65172;SDS011;51758;52.218;5.172;2023-04-02T06:03:37;5.70;;;3.77;;
65172;SDS011;51758;52.218;5.172;2023-04-02T06:06:14;8.25;;;4.60;;
65172;SDS011;51758;52.218;5.172;2023-04-02T06:08:48;8.30;;;4.10;;
65172;SDS011;51758;52.218;5.172;2023-04-02T06:11:22;8.83;;;4.37;;
65172;SDS011;51758;52.218;5.172;2023-04-02T06:13:54;7.60;;;3.90;;
65172;SDS011;51758;52.218;5.172;2023-04-02T06:16:24;8.53;;;4.33;;
65172;SDS011;51758;52.218;5.172;2023-04-02T06:18:55;13.23;;;4.37;;
65172;SDS011;51758;52.218;5.172;2023-04-02T06:21:25;6.35;;;4.00;;
65172;SDS011;51758;52.218;5.172;2023-04-02T06:23:54;10.57;;;4.33;;
65172;SDS011;51758;52.218;5.172;2023-04-02T06:26:26;6.73;;;4.13;;
65172;SDS011;51758;52.218;5.172;2023-04-02T06:28:59;8.77;;;4.33;;
65172;SDS011;51758;52.218;5.172;2023-04-02T06:31:33;7.97;;;4.60;;
65172;SDS011;51758;52.218;5.172;2023-04-02T06:34:05;8.87;;;4.47;;
65172;SDS011;51758;52.218;5.172;2023-04-02T06:36:41;9.00;;;5.03;;
65172;SDS011;51758;52.218;5.172;2023-04-02T06:39:14;5.53;;;4.73;;
65172;SDS011;51758;52.218;5.172;2023-04-02T06:41:45;7.97;;;4.70;;
65172;SDS011;51758;52.218;5.172;2023-04-02T06:44:13;8.30;;;4.55;;
65172;SDS011;51758;52.218;5.172;2023-04-02T06:46:45;8.70;;;4.60;;
65172;SDS011;51758;52.218;5.172;2023-04-02T06:49:18;7.10;;;5.30;;
65172;SDS011;51758;52.218;5.172;2023-04-02T06:51:52;7.87;;;4.90;;
65172;SDS011;51758;52.218;5.172;2023-04-02T06:54:21;6.67;;;4.60;;
65172;SDS011;51758;52.218;5.172;2023-04-02T06:56:49;10.37;;;5.20;;
65172;SDS011;51758;52.218;5.172;2023-04-02T06:59:19;8.67;;;4.80;;
65172;SDS011;51758;52.218;5.172;2023-04-02T07:01:47;10.55;;;4.90;;
65172;SDS011;51758;52.218;5.172;2023-04-02T07:04:18;10.03;;;4.90;;
65172;SDS011;51758;52.218;5.172;2023-04-02T07:06:47;6.83;;;4.23;;
65172;SDS011;51758;52.218;5.172;2023-04-02T07:09:17;11.13;;;5.07;;
65172;SDS011;51758;52.218;5.172;2023-04-02T07:11:45;9.43;;;4.80;;
65172;SDS011;51758;52.218;5.172;2023-04-02T07:14:13;6.70;;;4.43;;
65172;SDS011;51758;52.218;5.172;2023-04-02T07:16:41;8.13;;;4.13;;
65172;SDS011;51758;52.218;5.172;2023-04-02T07:19:14;9.57;;;4.60;;
65172;SDS011;51758;52.218;5.172;2023-04-02T07:21:44;8.67;;;4.60;;
65172;SDS011;51758;52.218;5.172;2023-04-02T07:24:12;5.78;;;4.35;;
65172;SDS011;51758;52.218;5.172;2023-04-02T07:26:41;7.20;;;4.37;;
65172;SDS011;51758;52.218;5.172;2023-04-02T07:29:12;7.83;;;4.13;;
65172;SDS011;51758;52.218;5.172;2023-04-02T07:31:41;6.27;;;4.20;;
65172;SDS011;51758;52.218;5.172;2023-04-02T07:34:09;5.20;;;3.90;;
65172;SDS011;51758;52.218;5.172;2023-04-02T07:36:37;5.07;;;3.90;;
65172;SDS011;51758;52.218;5.172;2023-04-02T07:39:05;5.85;;;3.35;;
65172;SDS011;51758;52.218;5.172;2023-04-02T07:41:33;7.87;;;4.00;;
65172;SDS011;51758;52.218;5.172;2023-04-02T07:44:21;6.47;;;3.88;;
65172;SDS011;51758;52.218;5.172;2023-04-02T07:46:49;6.17;;;3.77;;
65172;SDS011;51758;52.218;5.172;2023-04-02T07:49:17;6.38;;;3.58;;
65172;SDS011;51758;52.218;5.172;2023-04-02T07:51:45;9.10;;;4.50;;
65172;SDS011;51758;52.218;5.172;2023-04-02T07:54:13;8.07;;;3.97;;
65172;SDS011;51758;52.218;5.172;2023-04-02T07:56:41;5.10;;;3.50;;
65172;SDS011;51758;52.218;5.172;2023-04-02T07:59:10;4.75;;;3.17;;
65172;SDS011;51758;52.218;5.172;2023-04-02T08:01:38;4.10;;;3.20;;
65172;SDS011;51758;52.218;5.172;2023-04-02T08:04:14;4.60;;;2.90;;
65172;SDS011;51758;52.218;5.172;2023-04-02T08:06:43;6.30;;;3.00;;
65172;SDS011;51758;52.218;5.172;2023-04-02T08:09:11;10.82;;;3.75;;
65172;SDS011;51758;52.218;5.172;2023-04-02T08:11:39;5.13;;;3.38;;
65172;SDS011;51758;52.218;5.172;2023-04-02T08:14:07;9.07;;;3.33;;
65172;SDS011;51758;52.218;5.172;2023-04-02T08:16:44;5.65;;;3.20;;
65172;SDS011;51758;52.218;5.172;2023-04-02T08:19:14;9.07;;;3.67;;
65172;SDS011;51758;52.218;5.172;2023-04-02T08:21:41;5.83;;;3.50;;
65172;SDS011;51758;52.218;5.172;2023-04-02T08:24:10;6.03;;;3.53;;
65172;SDS011;51758;52.218;5.172;2023-04-02T08:26:38;5.47;;;3.58;;
65172;SDS011;51758;52.218;5.172;2023-04-02T08:29:07;6.87;;;3.60;;
65172;SDS011;51758;52.218;5.172;2023-04-02T08:31:35;9.93;;;3.63;;
65172;SDS011;51758;52.218;5.172;2023-04-02T08:34:04;7.22;;;3.30;;
65172;SDS011;51758;52.218;5.172;2023-04-02T08:36:33;4.87;;;3.30;;
65172;SDS011;51758;52.218;5.172;2023-04-02T08:39:03;5.13;;;3.33;;
65172;SDS011;51758;52.218;5.172;2023-04-02T08:41:34;6.75;;;3.45;;
65172;SDS011;51758;52.218;5.172;2023-04-02T08:44:07;7.80;;;3.60;;
65172;SDS011;51758;52.218;5.172;2023-04-02T08:46:45;4.73;;;3.80;;
65172;SDS011;51758;52.218;5.172;2023-04-02T08:49:18;6.63;;;3.97;;
65172;SDS011;51758;52.218;5.172;2023-04-02T08:51:52;5.30;;;3.70;;
65172;SDS011;51758;52.218;5.172;2023-04-02T08:54:22;6.55;;;4.53;;
65172;SDS011;51758;52.218;5.172;2023-04-02T08:56:54;9.63;;;4.60;;
65172;SDS011;51758;52.218;5.172;2023-04-02T08:59:29;7.60;;;4.60;;
65172;SDS011;51758;52.218;5.172;2023-04-02T09:02:01;7.20;;;4.10;;
65172;SDS011;51758;52.218;5.172;2023-04-02T09:04:43;5.53;;;4.03;;
65172;SDS011;51758;52.218;5.172;2023-04-02T09:07:11;6.83;;;4.13;;
65172;SDS011;51758;52.218;5.172;2023-04-02T09:09:41;6.43;;;3.97;;
65172;SDS011;51758;52.218;5.172;2023-04-02T09:12:14;6.40;;;3.23;;
65172;SDS011;51758;52.218;5.172;2023-04-02T09:14:45;6.53;;;3.13;;
65172;SDS011;51758;52.218;5.172;2023-04-02T09:17:25;5.60;;;3.00;;
65172;SDS011;51758;52.218;5.172;2023-04-02T09:20:03;5.73;;;2.80;;
65172;SDS011;51758;52.218;5.172;2023-04-02T09:22:43;5.90;;;2.50;;
65172;SDS011;51758;52.218;5.172;2023-04-02T09:25:18;6.23;;;2.73;;
65172;SDS011;51758;52.218;5.172;2023-04-02T09:27:48;7.65;;;2.90;;
65172;SDS011;51758;52.218;5.172;2023-04-02T09:30:22;6.35;;;2.17;;
65172;SDS011;51758;52.218;5.172;2023-04-02T09:32:57;3.45;;;1.95;;
65172;SDS011;51758;52.218;5.172;2023-04-02T09:35:29;3.00;;;1.85;;
65172;SDS011;51758;52.218;5.172;2023-04-02T09:38:17;4.78;;;2.47;;
65172;SDS011;51758;52.218;5.172;2023-04-02T09:40:48;5.75;;;2.10;;
65172;SDS011;51758;52.218;5.172;2023-04-02T09:43:18;3.95;;;2.20;;
65172;SDS011;51758;52.218;5.172;2023-04-02T09:45:57;3.55;;;2.35;;
65172;SDS011;51758;52.218;5.172;2023-04-02T09:48:27;3.85;;;1.70;;
65172;SDS011;51758;52.218;5.172;2023-04-02T09:51:06;6.28;;;2.13;;
65172;SDS011;51758;52.218;5.172;2023-04-02T09:53:40;4.95;;;1.80;;
65172;SDS011;51758;52.218;5.172;2023-04-02T09:56:13;4.10;;;1.80;;
65172;SDS011;51758;52.218;5.172;2023-04-02T09:58:43;4.45;;;1.90;;
65172;SDS011;51758;52.218;5.172;2023-04-02T10:01:24;5.47;;;2.13;;
65172;SDS011;51758;52.218;5.172;2023-04-02T10:03:55;3.70;;;2.10;;
65172;SDS011;51758;52.218;5.172;2023-04-02T10:06:26;6.10;;;2.37;;
65172;SDS011;51758;52.218;5.172;2023-04-02T10:08:55;5.03;;;2.17;;
65172;SDS011;51758;52.218;5.172;2023-04-02T10:11:25;4.32;;;2.08;;
65172;SDS011;51758;52.218;5.172;2023-04-02T10:14:12;3.23;;;1.87;;
65172;SDS011;51758;52.218;5.172;2023-04-02T10:16:44;4.57;;;2.23;;
65172;SDS011;51758;52.218;5.172;2023-04-02T10:19:19;7.03;;;2.20;;
65172;SDS011;51758;52.218;5.172;2023-04-02T10:21:54;5.43;;;2.03;;
65172;SDS011;51758;52.218;5.172;2023-04-02T10:24:25;5.70;;;2.27;;
65172;SDS011;51758;52.218;5.172;2023-04-02T10:26:59;5.53;;;2.30;;
65172;SDS011;51758;52.218;5.172;2023-04-02T10:29:43;3.23;;;1.90;;
65172;SDS011;51758;52.218;5.172;2023-04-02T10:32:19;4.17;;;1.93;;
65172;SDS011;51758;52.218;5.172;2023-04-02T10:34:51;4.40;;;1.93;;
65172;SDS011;51758;52.218;5.172;2023-04-02T10:40:25;6.88;;;1.80;;
65172;SDS011;51758;52.218;5.172;2023-04-02T10:43:13;3.38;;;1.60;;
65172;SDS011;51758;52.218;5.172;2023-04-02T10:46:04;3.10;;;1.85;;
65172;SDS011;51758;52.218;5.172;2023-04-02T10:48:39;3.50;;;1.70;;
65172;SDS011;51758;52.218;5.172;2023-04-02T10:51:22;5.82;;;2.05;;
65172;SDS011;51758;52.218;5.172;2023-04-02T10:53:56;4.32;;;1.55;;
65172;SDS011;51758;52.218;5.172;2023-04-02T10:56:33;4.75;;;1.90;;
65172;SDS011;51758;52.218;5.172;2023-04-02T10:59:17;4.93;;;1.70;;
65172;SDS011;51758;52.218;5.172;2023-04-02T11:01:48;3.13;;;1.40;;
65172;SDS011;51758;52.218;5.172;2023-04-02T11:04:20;4.30;;;1.65;;
65172;SDS011;51758;52.218;5.172;2023-04-02T11:06:54;3.55;;;1.38;;
65172;SDS011;51758;52.218;5.172;2023-04-02T11:09:40;3.67;;;1.77;;
65172;SDS011;51758;52.218;5.172;2023-04-02T11:12:16;3.65;;;1.52;;
65172;SDS011;51758;52.218;5.172;2023-04-02T11:14:48;4.53;;;1.50;;
65172;SDS011;51758;52.218;5.172;2023-04-02T11:17:18;2.97;;;1.45;;
65172;SDS011;51758;52.218;5.172;2023-04-02T11:19:47;4.38;;;1.67;;
65172;SDS011;51758;52.218;5.172;2023-04-02T11:22:15;4.97;;;1.60;;
65172;SDS011;51758;52.218;5.172;2023-04-02T11:24:44;4.03;;;1.63;;
65172;SDS011;51758;52.218;5.172;2023-04-02T11:27:17;3.10;;;1.42;;
65172;SDS011;51758;52.218;5.172;2023-04-02T11:29:50;2.42;;;1.45;;
65172;SDS011;51758;52.218;5.172;2023-04-02T11:32:30;4.95;;;1.65;;
65172;SDS011;51758;52.218;5.172;2023-04-02T11:41:07;3.95;;;1.58;;
65172;SDS011;51758;52.218;5.172;2023-04-02T11:43:52;4.03;;;1.58;;
65172;SDS011;51758;52.218;5.172;2023-04-02T11:46:42;2.88;;;1.63;;
65172;SDS011;51758;52.218;5.172;2023-04-02T11:52:20;4.00;;;1.30;;
65172;SDS011;51758;52.218;5.172;2023-04-02T11:55:01;3.67;;;1.50;;
65172;SDS011;51758;52.218;5.172;2023-04-02T12:00:54;3.45;;;1.30;;
65172;SDS011;51758;52.218;5.172;2023-04-02T12:04:06;3.92;;;1.33;;
65172;SDS011;51758;52.218;5.172;2023-04-02T12:06:51;2.80;;;1.30;;
65172;SDS011;51758;52.218;5.172;2023-04-02T12:09:27;3.15;;;1.40;;
65172;SDS011;51758;52.218;5.172;2023-04-02T12:11:57;3.28;;;1.48;;
65172;SDS011;51758;52.218;5.172;2023-04-02T12:14:29;3.95;;;1.40;;
65172;SDS011;51758;52.218;5.172;2023-04-02T12:17:15;4.68;;;1.33;;
65172;SDS011;51758;52.218;5.172;2023-04-02T12:19:47;3.95;;;1.50;;
65172;SDS011;51758;52.218;5.172;2023-04-02T12:22:17;2.83;;;1.20;;
65172;SDS011;51758;52.218;5.172;2023-04-02T12:24:48;3.97;;;1.50;;
65172;SDS011;51758;52.218;5.172;2023-04-02T12:27:18;2.88;;;1.50;;
65172;SDS011;51758;52.218;5.172;2023-04-02T12:29:48;2.65;;;1.40;;
65172;SDS011;51758;52.218;5.172;2023-04-02T12:32:24;3.25;;;1.45;;
65172;SDS011;51758;52.218;5.172;2023-04-02T12:34:56;3.90;;;1.48;;
65172;SDS011;51758;52.218;5.172;2023-04-02T12:37:25;5.95;;;1.88;;
65172;SDS011;51758;52.218;5.172;2023-04-02T12:39:56;3.75;;;1.63;;
65172;SDS011;51758;52.218;5.172;2023-04-02T12:42:26;3.95;;;1.50;;
65172;SDS011;51758;52.218;5.172;2023-04-02T12:44:58;2.92;;;1.20;;
65172;SDS011;51758;52.218;5.172;2023-04-02T12:47:27;4.57;;;1.30;;
65172;SDS011;51758;52.218;5.172;2023-04-02T12:49:56;2.92;;;1.40;;
65172;SDS011;51758;52.218;5.172;2023-04-02T12:52:26;4.05;;;1.40;;
65172;SDS011;51758;52.218;5.172;2023-04-02T12:54:56;3.67;;;1.70;;
65172;SDS011;51758;52.218;5.172;2023-04-02T12:57:37;3.90;;;1.58;;
65172;SDS011;51758;52.218;5.172;2023-04-02T13:03:15;3.85;;;1.30;;
65172;SDS011;51758;52.218;5.172;2023-04-02T13:05:46;5.60;;;1.58;;
65172;SDS011;51758;52.218;5.172;2023-04-02T13:08:18;4.97;;;2.53;;
65172;SDS011;51758;52.218;5.172;2023-04-02T13:10:51;3.33;;;1.35;;
65172;SDS011;51758;52.218;5.172;2023-04-02T13:13:25;2.60;;;1.27;;
65172;SDS011;51758;52.218;5.172;2023-04-02T13:16:00;3.67;;;1.40;;
65172;SDS011;51758;52.218;5.172;2023-04-02T13:19:07;4.10;;;1.30;;
65172;SDS011;51758;52.218;5.172;2023-04-02T13:21:36;4.10;;;1.70;;
65172;SDS011;51758;52.218;5.172;2023-04-02T13:24:09;3.15;;;1.42;;
65172;SDS011;51758;52.218;5.172;2023-04-02T13:26:43;2.05;;;1.30;;
65172;SDS011;51758;52.218;5.172;2023-04-02T13:29:16;2.67;;;1.20;;
65172;SDS011;51758;52.218;5.172;2023-04-02T13:31:47;3.67;;;1.40;;
65172;SDS011;51758;52.218;5.172;2023-04-02T13:34:16;3.00;;;1.40;;
65172;SDS011;51758;52.218;5.172;2023-04-02T13:36:44;3.58;;;1.50;;
65172;SDS011;51758;52.218;5.172;2023-04-02T13:39:13;4.85;;;1.60;;
65172;SDS011;51758;52.218;5.172;2023-04-02T13:41:41;3.17;;;1.33;;
65172;SDS011;51758;52.218;5.172;2023-04-02T13:44:16;4.35;;;1.90;;
65172;SDS011;51758;52.218;5.172;2023-04-02T13:46:46;2.95;;;1.30;;
65172;SDS011;51758;52.218;5.172;2023-04-02T13:49:14;4.97;;;1.40;;
65172;SDS011;51758;52.218;5.172;2023-04-02T13:51:44;6.15;;;3.55;;
65172;SDS011;51758;52.218;5.172;2023-04-02T13:54:15;3.55;;;1.52;;
65172;SDS011;51758;52.218;5.172;2023-04-02T13:56:46;3.08;;;1.27;;
65172;SDS011;51758;52.218;5.172;2023-04-02T13:59:14;3.95;;;1.60;;
65172;SDS011;51758;52.218;5.172;2023-04-02T14:01:43;4.55;;;1.45;;
65172;SDS011;51758;52.218;5.172;2023-04-02T14:04:13;3.30;;;1.60;;
65172;SDS011;51758;52.218;5.172;2023-04-02T14:06:54;2.42;;;1.30;;
65172;SDS011;51758;52.218;5.172;2023-04-02T14:09:43;4.90;;;1.33;;
65172;SDS011;51758;52.218;5.172;2023-04-02T14:12:23;1.65;;;1.20;;
65172;SDS011;51758;52.218;5.172;2023-04-02T14:15:08;2.50;;;1.20;;
65172;SDS011;51758;52.218;5.172;2023-04-02T14:17:56;2.85;;;1.33;;
65172;SDS011;51758;52.218;5.172;2023-04-02T14:20:37;3.25;;;1.20;;
65172;SDS011;51758;52.218;5.172;2023-04-02T14:23:18;2.63;;;1.30;;
65172;SDS011;51758;52.218;5.172;2023-04-02T14:25:53;4.25;;;1.60;;
65172;SDS011;51758;52.218;5.172;2023-04-02T14:28:30;3.65;;;1.33;;
65172;SDS011;51758;52.218;5.172;2023-04-02T14:31:06;3.55;;;1.50;;
65172;SDS011;51758;52.218;5.172;2023-04-02T14:33:45;2.92;;;1.50;;
65172;SDS011;51758;52.218;5.172;2023-04-02T14:36:21;3.00;;;1.40;;
65172;SDS011;51758;52.218;5.172;2023-04-02T14:38:56;4.35;;;1.30;;
65172;SDS011;51758;52.218;5.172;2023-04-02T14:41:34;3.53;;;1.70;;
65172;SDS011;51758;52.218;5.172;2023-04-02T14:44:07;3.42;;;1.50;;
65172;SDS011;51758;52.218;5.172;2023-04-02T14:46:38;3.65;;;1.50;;
65172;SDS011;51758;52.218;5.172;2023-04-02T14:49:10;4.45;;;1.50;;
65172;SDS011;51758;52.218;5.172;2023-04-02T14:51:47;3.42;;;1.33;;
65172;SDS011;51758;52.218;5.172;2023-04-02T14:54:21;4.03;;;1.33;;
65172;SDS011;51758;52.218;5.172;2023-04-02T14:56:57;2.88;;;1.38;;
65172;SDS011;51758;52.218;5.172;2023-04-02T14:59:31;4.13;;;1.40;;
65172;SDS011;51758;52.218;5.172;2023-04-02T15:02:03;3.60;;;1.50;;
65172;SDS011;51758;52.218;5.172;2023-04-02T15:04:36;3.75;;;1.60;;
65172;SDS011;51758;52.218;5.172;2023-04-02T15:07:11;4.10;;;1.27;;
65172;SDS011;51758;52.218;5.172;2023-04-02T15:09:48;3.33;;;1.80;;
65172;SDS011;51758;52.218;5.172;2023-04-02T15:12:21;2.88;;;1.60;;
65172;SDS011;51758;52.218;5.172;2023-04-02T15:14:54;4.72;;;1.98;;
65172;SDS011;51758;52.218;5.172;2023-04-02T15:17:28;2.42;;;1.35;;
65172;SDS011;51758;52.218;5.172;2023-04-02T15:19:57;2.80;;;1.20;;
65172;SDS011;51758;52.218;5.172;2023-04-02T15:22:36;2.78;;;1.30;;
65172;SDS011;51758;52.218;5.172;2023-04-02T15:25:15;1.90;;;1.10;;
65172;SDS011;51758;52.218;5.172;2023-04-02T15:27:55;2.47;;;1.30;;
65172;SDS011;51758;52.218;5.172;2023-04-02T15:30:34;2.97;;;1.33;;
65172;SDS011;51758;52.218;5.172;2023-04-02T15:33:27;4.03;;;1.40;;
65172;SDS011;51758;52.218;5.172;2023-04-02T15:36:19;2.75;;;1.30;;
65172;SDS011;51758;52.218;5.172;2023-04-02T15:39:16;4.03;;;1.38;;
65172;SDS011;51758;52.218;5.172;2023-04-02T15:42:09;3.30;;;1.35;;
65172;SDS011;51758;52.218;5.172;2023-04-02T15:44:43;2.38;;;1.17;;
65172;SDS011;51758;52.218;5.172;2023-04-02T15:47:22;4.47;;;1.50;;